createdAt,value
2022-09-12T00:09:58.974Z,99148.38
2022-09-12T00:30:00.803Z,99159.25
2022-09-12T00:50:02.666Z,99152.88
2022-09-12T01:10:23.578Z,99142.78
2022-09-12T01:30:44.249Z,99142.19
2022-09-12T01:51:04.839Z,99136.25
2022-09-12T02:11:26.027Z,99134.16
2022-09-12T02:31:46.467Z,99120.78
2022-09-12T02:52:06.689Z,99115.00
2022-09-12T03:12:27.476Z,99103.69
2022-09-12T03:32:29.770Z,99103.47
2022-09-12T03:52:32.933Z,99104.31
2022-09-12T04:12:34.777Z,99104.13
2022-09-12T04:32:36.748Z,99099.13
2022-09-12T04:52:38.810Z,99103.47
2022-09-12T05:12:45.383Z,99104.59
2022-09-12T05:32:47.289Z,99133.94
2022-09-12T05:52:49.381Z,99150.66
2022-09-12T06:12:51.580Z,99152.50
2022-09-12T06:33:13.906Z,99172.41
2022-09-12T06:53:23.223Z,99182.19
2022-09-12T07:55:32.091Z,99205.25
2022-09-12T08:15:35.605Z,99207.75
2022-09-12T08:35:42.881Z,99210.81
2022-09-12T08:55:44.671Z,99214.41
2022-09-12T09:15:57.092Z,99188.00
2022-09-12T09:36:11.432Z,99183.34
2022-09-12T09:56:13.822Z,99170.81
2022-09-12T10:16:24.839Z,99159.88
2022-09-12T10:36:34.176Z,99149.94
2022-09-12T10:56:41.428Z,99151.56
2022-09-12T11:16:43.501Z,99137.78
2022-09-12T11:36:45.497Z,99133.34
2022-09-12T11:56:47.673Z,99129.03
2022-09-12T12:17:14.195Z,99102.91
2022-09-12T12:37:18.296Z,99088.88
2022-09-12T12:57:24.519Z,99074.47
2022-09-12T13:17:26.314Z,99086.91
2022-09-12T13:37:28.172Z,99058.41
2022-09-12T13:57:29.972Z,99043.94
2022-09-12T14:17:31.812Z,99050.88
2022-09-12T14:37:54.174Z,99050.91
2022-09-12T14:58:15.733Z,99029.13
2022-09-12T15:18:36.158Z,99033.13
2022-09-12T15:38:56.578Z,99043.84
2022-09-12T15:59:17.153Z,99028.56
2022-09-12T16:19:37.722Z,99041.44
2022-09-12T16:39:58.657Z,99035.09
2022-09-12T17:00:01.071Z,99037.50
2022-09-12T17:20:02.830Z,99036.72
2022-09-12T17:40:05.030Z,99049.16
2022-09-12T18:00:06.862Z,99056.13
2022-09-12T18:20:13.361Z,99071.06
2022-09-12T18:40:18.697Z,99084.19
2022-09-12T19:00:21.371Z,99083.50
2022-09-12T19:20:23.350Z,99085.09
2022-09-12T19:40:25.300Z,99078.81
2022-09-12T20:00:27.117Z,99086.84
2022-09-12T20:20:30.746Z,99079.69
2022-09-12T20:40:33.075Z,99070.22
2022-09-12T21:00:35.083Z,99071.53
2022-09-12T21:20:36.789Z,99069.13
2022-09-12T21:40:38.731Z,99070.16
2022-09-12T22:00:40.225Z,99070.16
2022-09-12T22:20:42.959Z,99064.16
2022-09-12T22:40:44.412Z,99070.78
2022-09-12T23:00:46.571Z,99058.41
2022-09-12T23:20:48.200Z,99061.63
2022-09-12T23:40:50.544Z,99048.13
